Time;durP1;ratioP1;P1;durP2;ratioP2;P2;SDS_P1;SDS_P2;PMS_P1;PMS_P2;Temp;Humidity;BMP_temperature;BMP_pressure;BME280_temperature;BME280_humidity;BME280_pressure;Samples;Min_cycle;Max_cycle;Signal;HPM_P1;HPM_P2
2024/04/03 00:01:47;;;;;;;1.10;0.50;;;;;;;13.28;37.98;94928.88;5046465;28;20071;-79
2024/04/03 00:04:12;;;;;;;1.75;0.40;;;;;;;13.26;37.98;94923.06;5028956;28;20044;-80
2024/04/03 00:06:38;;;;;;;1.33;0.50;;;;;;;13.20;37.95;94930.38;5046637;28;20533;-79
2024/04/03 00:09:03;;;;;;;0.88;0.60;;;;;;;13.11;38.15;94925.56;5047573;28;20052;-77
2024/04/03 00:11:29;;;;;;;0.60;0.40;;;;;;;13.11;38.10;94935.84;5047042;28;20027;-80
2024/04/03 00:13:54;;;;;;;0.98;0.40;;;;;;;13.15;38.20;94939.22;5045984;28;20120;-78
2024/04/03 00:16:20;;;;;;;0.60;0.35;;;;;;;13.14;37.93;94940.47;5046323;28;20025;-79
2024/04/03 00:18:45;;;;;;;1.20;0.40;;;;;;;13.01;38.11;94938.53;5047347;28;20028;-79
2024/04/03 00:21:11;;;;;;;0.85;0.40;;;;;;;13.00;38.24;94939.00;5045876;28;20557;-80
2024/04/03 00:23:36;;;;;;;0.85;0.47;;;;;;;12.96;38.24;94938.34;5029886;28;20419;-80
2024/04/03 00:26:02;;;;;;;0.82;0.47;;;;;;;13.01;38.31;94957.09;5028631;28;20545;-79
2024/04/03 00:28:29;;;;;;;2.17;0.55;;;;;;;12.93;38.39;94951.06;5047800;28;20115;-79
2024/04/03 00:30:54;;;;;;;1.02;0.40;;;;;;;12.92;38.64;94955.06;5046713;28;20132;-79
2024/04/03 00:33:20;;;;;;;0.70;0.40;;;;;;;12.86;38.45;94945.06;5045523;28;20511;-78
2024/04/03 00:35:56;;;;;;;0.77;0.30;;;;;;;12.86;38.55;94945.84;5028721;28;20039;-78
2024/04/03 00:38:22;;;;;;;1.05;0.40;;;;;;;12.83;38.53;94937.69;5046648;28;20659;-80
2024/04/03 00:40:54;;;;;;;0.93;0.30;;;;;;;12.77;38.64;94940.25;5028991;28;20032;-78
2024/04/03 00:43:19;;;;;;;0.98;0.73;;;;;;;12.75;38.60;94937.94;5044249;28;20025;-78
2024/04/03 00:45:45;;;;;;;0.25;0.25;;;;;;;12.77;38.68;94951.28;5045909;28;20317;-78
2024/04/03 00:48:10;;;;;;;0.52;0.40;;;;;;;12.71;38.92;94951.09;5044675;28;20029;-78
2024/04/03 00:50:35;;;;;;;0.95;0.38;;;;;;;12.63;39.16;94949.84;5045867;28;20045;-79
2024/04/03 00:53:01;;;;;;;0.57;0.35;;;;;;;12.53;39.30;94948.22;5047189;28;20053;-78
2024/04/03 00:55:26;;;;;;;1.30;0.55;;;;;;;12.39;39.59;94951.50;5028488;28;20531;-78
2024/04/03 00:57:52;;;;;;;0.73;0.40;;;;;;;12.42;39.72;94953.34;5045399;28;20621;-78
2024/04/03 01:00:18;;;;;;;1.17;0.60;;;;;;;12.48;39.45;94946.03;5044760;28;20043;-78
2024/04/03 01:02:43;;;;;;;1.58;0.60;;;;;;;12.52;39.22;94949.44;5045612;28;20087;-79
2024/04/03 01:05:09;;;;;;;1.42;0.40;;;;;;;12.54;38.96;94951.75;5046244;28;20036;-79
2024/04/03 01:07:36;;;;;;;0.40;0.40;;;;;;;12.54;39.40;94943.47;5045615;28;20037;-79
2024/04/03 01:10:02;;;;;;;2.15;0.77;;;;;;;12.48;39.52;94943.28;5045039;28;20505;-79
2024/04/03 01:12:32;;;;;;;0.38;0.32;;;;;;;12.51;39.36;94944.38;5046757;28;20029;-80
2024/04/03 01:14:57;;;;;;;0.80;0.50;;;;;;;12.57;39.10;94945.34;5029157;28;20067;-79
2024/04/03 01:17:22;;;;;;;0.47;0.32;;;;;;;12.56;39.09;94944.59;5046311;28;20074;-78
2024/04/03 01:19:49;;;;;;;0.95;0.35;;;;;;;12.44;39.18;94948.16;5045565;28;20522;-79
2024/04/03 01:22:14;;;;;;;0.80;0.40;;;;;;;12.41;39.43;94946.31;5027977;28;20032;-79
2024/04/03 01:24:40;;;;;;;1.17;0.52;;;;;;;12.31;39.63;94917.13;5045467;28;20029;-79
2024/04/03 01:27:05;;;;;;;0.65;0.30;;;;;;;12.25;39.60;94941.75;5044475;28;20082;-80
2024/04/03 01:29:31;;;;;;;1.42;0.73;;;;;;;12.19;39.96;94947.06;5044822;28;20029;-80
2024/04/03 01:31:56;;;;;;;0.63;0.40;;;;;;;12.15;39.96;94937.38;5028121;28;20025;-80
2024/04/03 01:34:22;;;;;;;2.53;0.65;;;;;;;12.16;39.88;94939.69;5044579;28;20087;-80
2024/04/03 01:36:47;;;;;;;1.75;0.47;;;;;;;12.17;39.92;94945.97;5044862;28;20029;-79
2024/04/03 01:39:12;;;;;;;1.42;0.55;;;;;;;12.13;40.14;94940.56;5027897;28;20067;-79
2024/04/03 01:41:38;;;;;;;1.67;0.60;;;;;;;12.04;40.39;94942.47;5045235;28;20045;-79
2024/04/03 01:44:03;;;;;;;1.05;0.50;;;;;;;12.09;40.18;94947.41;5044112;28;20067;-79
2024/04/03 01:46:29;;;;;;;1.02;0.50;;;;;;;12.08;40.37;94946.66;5028448;28;20014;-78
2024/04/03 01:48:54;;;;;;;2.03;0.60;;;;;;;12.12;40.60;94955.56;5045941;28;20055;-78
2024/04/03 01:51:19;;;;;;;2.25;0.50;;;;;;;12.13;40.81;94948.06;5046069;28;20414;-78
2024/04/03 01:53:45;;;;;;;0.77;0.43;;;;;;;12.17;40.57;94948.72;5046472;28;20053;-79
2024/04/03 01:56:10;;;;;;;1.05;0.43;;;;;;;12.04;40.84;94946.00;5048306;28;20021;-79
2024/04/03 01:58:35;;;;;;;1.35;0.52;;;;;;;12.04;40.88;94950.75;5048447;28;20687;-79
2024/04/03 02:01:01;;;;;;;1.48;0.55;;;;;;;12.01;41.07;94955.16;5049434;28;20107;-79
2024/04/03 02:03:26;;;;;;;1.73;0.50;;;;;;;12.03;41.18;94958.22;5052710;28;20029;-79
2024/04/03 02:05:52;;;;;;;1.38;0.60;;;;;;;11.94;41.58;94950.66;5047914;28;20107;-79
2024/04/03 02:08:17;;;;;;;0.85;0.57;;;;;;;11.94;41.68;94952.66;5048368;28;20068;-79
2024/04/03 02:10:43;;;;;;;0.77;0.50;;;;;;;11.87;41.79;94953.66;5047959;28;20033;-79
2024/04/03 02:13:09;;;;;;;0.88;0.60;;;;;;;11.81;41.89;94958.19;5049619;28;20037;-79
2024/04/03 02:15:34;;;;;;;1.15;0.55;;;;;;;11.79;41.59;94963.34;5049180;28;20021;-79
2024/04/03 02:18:00;;;;;;;0.98;0.65;;;;;;;11.74;41.77;94952.88;5047712;28;20031;-79
2024/04/03 02:20:25;;;;;;;2.47;0.70;;;;;;;11.72;41.89;94960.06;5049353;28;20445;-79
2024/04/03 02:22:51;;;;;;;2.03;0.50;;;;;;;11.64;41.94;94951.25;5030759;28;20128;-80
2024/04/03 02:25:17;;;;;;;1.92;0.50;;;;;;;11.58;42.27;94950.25;5048093;28;20383;-78
2024/04/03 02:27:42;;;;;;;2.40;0.70;;;;;;;11.58;42.00;94950.25;5047512;28;20423;-79
2024/04/03 02:30:08;;;;;;;0.70;0.52;;;;;;;11.58;42.09;94944.75;5047894;28;20047;-78
2024/04/03 02:32:33;;;;;;;0.68;0.65;;;;;;;11.59;42.08;94938.84;5049250;28;20325;-80
2024/04/03 02:34:59;;;;;;;1.13;0.55;;;;;;;11.57;42.05;94955.00;5047672;28;20459;-80
2024/04/03 02:37:24;;;;;;;2.08;0.77;;;;;;;11.51;42.30;94950.50;5047624;28;20056;-78
2024/04/03 02:39:50;;;;;;;0.60;0.38;;;;;;;11.47;42.42;94958.88;5030516;28;20027;-77
2024/04/03 02:42:16;;;;;;;3.20;0.63;;;;;;;11.43;42.55;94956.25;5030900;28;20106;-79
2024/04/03 02:44:41;;;;;;;2.63;0.68;;;;;;;11.39;42.39;94950.06;5030258;28;20067;-78
2024/04/03 02:47:07;;;;;;;0.80;0.70;;;;;;;11.37;42.70;94966.25;5047748;28;20094;-79
2024/04/03 02:49:32;;;;;;;1.48;0.70;;;;;;;11.34;42.68;94964.38;5047115;28;20033;-77
2024/04/03 02:51:57;;;;;;;0.98;0.70;;;;;;;11.28;42.84;94974.41;5030678;28;20121;-79
2024/04/03 02:54:23;;;;;;;1.05;0.57;;;;;;;11.26;42.92;94979.59;5048626;28;20060;-80
2024/04/03 02:56:48;;;;;;;2.05;0.85;;;;;;;11.26;43.21;94979.59;5048615;28;20029;-77
2024/04/03 02:59:14;;;;;;;1.33;0.80;;;;;;;11.22;43.29;94976.16;5030952;28;20025;-77
2024/04/03 03:01:39;;;;;;;2.67;0.77;;;;;;;11.16;43.34;94972.41;5046733;28;20383;-79
2024/04/03 03:04:06;;;;;;;1.77;0.90;;;;;;;11.18;43.27;94989.25;5048020;28;20033;-79
2024/04/03 03:06:31;;;;;;;2.20;1.05;;;;;;;11.14;43.27;94988.59;5029425;28;20567;-79
2024/04/03 03:08:57;;;;;;;3.47;1.15;;;;;;;11.13;43.39;94979.59;5047204;28;20112;-78
2024/04/03 03:11:22;;;;;;;2.47;1.00;;;;;;;11.09;43.49;94983.66;5046823;28;20044;-79
2024/04/03 03:13:47;;;;;;;1.77;0.80;;;;;;;11.05;43.76;94988.47;5050731;28;20100;-79
2024/04/03 03:16:20;;;;;;;3.80;1.40;;;;;;;11.03;43.91;94988.16;5048879;28;20055;-79
2024/04/03 03:18:45;;;;;;;3.33;1.10;;;;;;;11.06;44.11;94996.28;5048053;28;20036;-78
2024/04/03 03:21:10;;;;;;;1.98;1.10;;;;;;;11.01;44.32;95004.31;5047352;28;20033;-80
2024/04/03 03:23:36;;;;;;;1.70;0.73;;;;;;;10.95;44.26;94997.81;5046279;28;20518;-79
2024/04/03 03:26:01;;;;;;;1.42;0.98;;;;;;;11.03;44.63;95008.19;5047122;28;20025;-77
2024/04/03 03:28:26;;;;;;;2.22;0.93;;;;;;;11.05;44.47;95010.47;5046300;28;20108;-78
2024/04/03 03:30:52;;;;;;;5.07;1.08;;;;;;;11.00;44.66;94992.53;5046595;28;20036;-79
2024/04/03 03:33:18;;;;;;;2.72;1.10;;;;;;;11.04;44.46;94986.94;5046110;28;20029;-80
2024/04/03 03:35:54;;;;;;;3.03;0.90;;;;;;;11.07;44.30;94986.84;5046698;28;20059;-80
2024/04/03 03:38:19;;;;;;;1.50;0.82;;;;;;;11.05;44.34;95000.25;5029798;28;20424;-80
2024/04/03 03:40:45;;;;;;;5.75;0.82;;;;;;;11.08;44.64;95009.63;5046129;28;20025;-78
2024/04/03 03:43:10;;;;;;;1.17;0.70;;;;;;;11.08;44.38;95010.38;5029875;28;20033;-78
2024/04/03 03:45:46;;;;;;;3.25;0.90;;;;;;;11.06;44.15;95007.28;5047200;28;20939;-79
2024/04/03 03:48:12;;;;;;;2.72;0.88;;;;;;;11.13;44.16;95011.84;5046135;28;20066;-78
2024/04/03 03:53:22;;;;;;;3.45;1.00;;;;;;;11.15;44.03;95012.91;5045932;28;20042;-79
2024/04/03 03:55:47;;;;;;;1.85;0.90;;;;;;;11.17;44.14;95032.50;5046658;28;20115;-78
2024/04/03 03:58:13;;;;;;;3.70;1.75;;;;;;;11.15;44.03;95020.41;5045672;28;20040;-79
2024/04/03 04:00:38;;;;;;;1.70;0.93;;;;;;;11.15;44.33;95029.44;5045978;28;20495;-79
2024/04/03 04:03:04;;;;;;;3.97;1.30;;;;;;;11.23;43.99;95037.47;5045739;28;20093;-80
2024/04/03 04:05:29;;;;;;;3.40;1.30;;;;;;;11.13;44.21;95026.34;5045576;28;20033;-79
2024/04/03 04:07:55;;;;;;;1.90;1.00;;;;;;;11.22;44.04;95024.94;5045927;28;20040;-79
2024/04/03 04:10:20;;;;;;;3.95;1.35;;;;;;;11.21;44.03;95024.16;5045080;28;20025;-79
2024/04/03 04:12:45;;;;;;;2.80;0.73;;;;;;;11.14;43.93;95024.38;5045626;28;20104;-79
2024/04/03 04:15:11;;;;;;;4.32;1.05;;;;;;;11.12;44.10;95029.53;5046739;28;20104;-79
2024/04/03 04:17:36;;;;;;;2.95;1.25;;;;;;;11.10;44.24;95029.97;5028326;28;20036;-80
2024/04/03 04:20:07;;;;;;;2.78;1.17;;;;;;;11.01;44.36;95023.56;5028654;28;20086;-78
2024/04/03 04:22:32;;;;;;;3.42;1.20;;;;;;;10.97;44.48;95031.94;5045783;28;20029;-78
2024/04/03 04:24:57;;;;;;;3.83;1.10;;;;;;;10.90;44.46;95021.16;5050030;28;20118;-79
2024/04/03 04:27:25;;;;;;;2.63;1.05;;;;;;;10.96;44.43;95033.16;5045652;28;20488;-78
2024/04/03 04:29:50;;;;;;;2.78;1.02;;;;;;;10.76;44.76;95035.28;5047266;28;20047;-80
2024/04/03 04:32:16;;;;;;;2.78;0.98;;;;;;;10.79;44.79;95031.69;5028470;28;20439;-80
2024/04/03 04:34:42;;;;;;;2.03;1.00;;;;;;;10.85;44.87;95052.69;5047145;28;20112;-79
2024/04/03 04:37:08;;;;;;;2.58;1.40;;;;;;;10.86;44.56;95045.22;5028353;28;20037;-79
2024/04/03 04:39:34;;;;;;;4.32;1.30;;;;;;;10.86;44.48;95051.50;5046603;28;20036;-79
2024/04/03 04:42:00;;;;;;;2.10;0.93;;;;;;;10.79;44.72;95057.19;5046731;28;20355;-80
2024/04/03 04:44:25;;;;;;;2.85;1.30;;;;;;;10.80;44.65;95061.47;5045100;28;20025;-79
2024/04/03 04:46:52;;;;;;;4.05;1.20;;;;;;;10.88;44.53;95062.03;5046915;28;20109;-80
2024/04/03 04:52:03;;;;;;;2.42;1.20;;;;;;;10.93;44.54;95067.00;5046472;28;20044;-79
2024/04/03 04:54:28;;;;;;;3.60;1.40;;;;;;;10.96;44.53;95070.88;5044895;28;20028;-78
2024/04/03 04:56:53;;;;;;;3.83;1.50;;;;;;;10.99;44.60;95078.25;5029021;28;20032;-78
2024/04/03 04:59:19;;;;;;;4.93;1.40;;;;;;;11.05;44.35;95077.28;5046689;28;20104;-80
2024/04/03 05:01:44;;;;;;;8.30;1.33;;;;;;;11.15;44.54;95065.19;5028190;28;20033;-79
2024/04/03 05:04:11;;;;;;;5.15;1.60;;;;;;;11.23;44.20;95065.00;5045230;28;20112;-79
2024/04/03 05:06:36;;;;;;;9.30;3.03;;;;;;;11.27;44.31;95060.94;5027852;28;20063;-79
2024/04/03 05:09:03;;;;;;;9.45;3.08;;;;;;;11.25;44.65;95066.09;5028947;28;20511;-80
2024/04/03 05:11:28;;;;;;;6.50;2.78;;;;;;;11.37;44.25;95067.34;5044323;28;20475;-79
2024/04/03 05:13:53;;;;;;;8.75;3.17;;;;;;;11.38;44.01;95077.13;5045421;28;20031;-79
2024/04/03 05:16:20;;;;;;;6.43;2.35;;;;;;;11.43;43.74;95073.84;5046292;28;20499;-79
2024/04/03 05:18:46;;;;;;;5.57;2.75;;;;;;;11.32;43.79;95063.13;5045644;28;20044;-79
2024/04/03 05:21:12;;;;;;;7.35;3.05;;;;;;;11.27;43.76;95065.66;5045797;28;20029;-79
2024/04/03 05:23:38;;;;;;;8.93;3.55;;;;;;;11.22;43.95;95077.97;5028555;28;20039;-79
2024/04/03 05:26:05;;;;;;;11.93;3.65;;;;;;;11.17;43.99;95078.50;5045708;28;20025;-79
2024/04/03 05:28:32;;;;;;;8.80;3.92;;;;;;;11.25;43.92;95087.34;5029631;28;20017;-78
2024/04/03 05:31:03;;;;;;;14.20;3.75;;;;;;;11.08;44.32;95079.16;5033093;28;20028;-79
2024/04/03 05:33:29;;;;;;;7.15;3.17;;;;;;;10.99;44.57;95086.50;5049556;28;20029;-78
2024/04/03 05:35:58;;;;;;;7.80;2.38;;;;;;;11.03;44.67;95089.94;5063521;28;20061;-79
2024/04/03 05:38:24;;;;;;;9.13;3.75;;;;;;;11.02;44.59;95080.91;5049243;28;20071;-76
2024/04/03 05:40:51;;;;;;;10.40;4.00;;;;;;;11.05;44.64;95085.53;5048665;28;20025;-78
2024/04/03 05:43:17;;;;;;;12.23;3.90;;;;;;;10.99;45.02;95079.03;5032426;28;20497;-78
2024/04/03 05:45:42;;;;;;;6.57;3.20;;;;;;;11.01;44.95;95084.09;5048558;28;20075;-80
2024/04/03 05:48:08;;;;;;;10.52;3.53;;;;;;;11.08;44.98;95076.41;5032518;28;20063;-78
2024/04/03 05:50:33;;;;;;;7.05;3.22;;;;;;;11.05;44.88;95077.28;5031957;28;20466;-79
2024/04/03 05:52:59;;;;;;;9.20;3.25;;;;;;;11.07;44.75;95074.13;5048690;28;20029;-80
2024/04/03 05:55:24;;;;;;;6.28;3.10;;;;;;;11.10;44.85;95078.72;5048203;28;20044;-77
2024/04/03 05:57:50;;;;;;;5.38;2.60;;;;;;;11.14;44.93;95082.94;5032077;28;20029;-79
2024/04/03 06:00:15;;;;;;;7.10;2.53;;;;;;;11.19;45.16;95075.34;5049988;28;20392;-79
2024/04/03 06:02:41;;;;;;;10.05;2.92;;;;;;;11.24;45.04;95083.03;5047934;28;20025;-78
2024/04/03 06:05:07;;;;;;;5.47;2.35;;;;;;;11.36;45.06;95077.56;5032172;28;20036;-80
2024/04/03 06:07:33;;;;;;;8.02;2.92;;;;;;;11.36;45.42;95080.31;5047839;28;20029;-78
2024/04/03 06:09:59;;;;;;;6.70;2.40;;;;;;;11.49;45.41;95083.09;5049046;28;20025;-80
2024/04/03 06:12:24;;;;;;;6.50;2.58;;;;;;;11.52;45.29;95076.69;5048969;28;20080;-79
2024/04/03 06:14:50;;;;;;;10.20;3.58;;;;;;;11.68;45.00;95084.84;5050041;28;20017;-79
2024/04/03 06:17:15;;;;;;;7.88;2.72;;;;;;;11.68;44.63;95084.84;5048001;28;20499;-78
2024/04/03 06:19:40;;;;;;;5.63;2.75;;;;;;;11.73;44.91;95089.03;5047707;28;20407;-79
2024/04/03 06:22:06;;;;;;;10.77;2.67;;;;;;;11.82;44.53;95097.47;5048385;28;20464;-80
2024/04/03 06:24:31;;;;;;;5.80;2.25;;;;;;;11.90;44.30;95096.00;5047633;28;20075;-79
2024/04/03 06:26:56;;;;;;;6.35;2.42;;;;;;;11.88;44.46;95098.44;5031657;28;20028;-78
2024/04/03 06:29:22;;;;;;;5.10;2.20;;;;;;;11.94;44.59;95095.91;5048914;28;20032;-80
2024/04/03 06:31:49;;;;;;;10.82;2.78;;;;;;;12.01;44.63;95090.16;5047787;28;20501;-79
2024/04/03 06:34:14;;;;;;;8.63;2.60;;;;;;;12.13;44.54;95096.88;5031410;28;20025;-78
2024/04/03 06:36:40;;;;;;;7.95;2.33;;;;;;;12.20;44.35;95104.91;5047595;28;20461;-80
2024/04/03 06:39:06;;;;;;;7.95;2.55;;;;;;;12.27;44.40;95103.91;5047495;28;20138;-79
2024/04/03 06:41:31;;;;;;;8.18;2.90;;;;;;;12.32;44.30;95092.31;5048061;28;20025;-77
2024/04/03 06:43:57;;;;;;;10.63;2.78;;;;;;;12.45;43.80;95095.84;5048173;28;20021;-78
2024/04/03 06:46:23;;;;;;;6.50;2.63;;;;;;;12.57;43.42;95097.03;5060258;28;20028;-77
2024/04/03 06:48:48;;;;;;;5.15;2.67;;;;;;;12.59;43.19;95095.34;5053416;28;20025;-79
2024/04/03 06:51:13;;;;;;;4.88;2.60;;;;;;;12.68;43.59;95092.69;5047294;28;20060;-81
2024/04/03 06:53:39;;;;;;;8.30;2.13;;;;;;;12.83;43.30;95094.94;5048762;28;20036;-79
2024/04/03 06:56:04;;;;;;;5.38;2.88;;;;;;;12.82;43.22;95102.44;5047384;28;20017;-79
2024/04/03 06:58:44;;;;;;;8.77;3.25;;;;;;;13.00;43.03;95108.09;5047088;28;20025;-80
2024/04/03 07:01:11;;;;;;;4.97;2.05;;;;;;;13.06;42.52;95110.28;5047699;28;20025;-78
2024/04/03 07:03:37;;;;;;;9.77;2.08;;;;;;;13.04;42.64;95099.69;5046904;28;20115;-79
2024/04/03 07:06:02;;;;;;;8.43;2.25;;;;;;;13.13;42.66;95115.53;5047722;28;20488;-76
2024/04/03 07:08:28;;;;;;;12.07;2.33;;;;;;;13.20;42.84;95112.53;5029942;28;20029;-80
2024/04/03 07:10:53;;;;;;;9.15;3.08;;;;;;;13.21;42.57;95112.13;5030655;28;20107;-80
2024/04/03 07:13:20;;;;;;;5.00;2.05;;;;;;;13.33;42.57;95107.75;5048432;28;20025;-79
2024/04/03 07:15:47;;;;;;;8.10;1.90;;;;;;;13.42;42.30;95105.06;5047903;28;20041;-80
2024/04/03 07:18:12;;;;;;;7.80;2.00;;;;;;;13.50;42.02;95111.84;5047034;28;20029;-81
2024/04/03 07:20:38;;;;;;;7.28;1.92;;;;;;;13.62;41.96;95110.22;5047704;28;20076;-80
2024/04/03 07:23:03;;;;;;;4.25;1.70;;;;;;;13.68;41.57;95105.63;5046972;28;20542;-79
2024/04/03 07:25:28;;;;;;;6.50;2.08;;;;;;;13.80;41.14;95107.53;5046290;28;20112;-78
2024/04/03 07:27:55;;;;;;;8.30;2.28;;;;;;;13.97;40.87;95124.66;5047303;28;20107;-80
2024/04/03 07:30:20;;;;;;;5.03;1.52;;;;;;;14.02;41.06;95112.25;5048110;28;20032;-79
2024/04/03 07:32:46;;;;;;;5.35;2.25;;;;;;;14.02;41.00;95099.19;5046866;28;20029;-79
2024/04/03 07:35:12;;;;;;;7.13;2.00;;;;;;;14.08;40.81;95108.41;5030101;28;20021;-79
2024/04/03 07:37:39;;;;;;;6.82;1.98;;;;;;;14.18;40.37;95108.47;5029399;28;20189;-79
2024/04/03 07:40:09;;;;;;;4.75;1.50;;;;;;;14.29;39.13;95106.03;5048077;28;20119;-80
2024/04/03 07:42:40;;;;;;;5.50;1.00;;;;;;;14.44;37.74;95117.28;5045778;28;20483;-80
2024/04/03 07:45:09;;;;;;;1.58;0.70;;;;;;;14.46;37.66;95096.25;5046827;28;20025;-79
2024/04/03 07:47:34;;;;;;;4.40;1.33;;;;;;;14.59;37.87;95101.66;5047449;28;20021;-79
2024/04/03 07:50:07;;;;;;;3.35;0.70;;;;;;;14.72;35.92;95110.59;5046542;28;20033;-79
2024/04/03 07:52:37;;;;;;;1.60;0.90;;;;;;;14.84;35.49;95106.13;5046105;28;20040;-79
2024/04/03 07:55:06;;;;;;;1.52;0.70;;;;;;;14.96;35.44;95101.69;5030132;28;20047;-80
2024/04/03 07:57:33;;;;;;;2.95;1.17;;;;;;;15.00;35.78;95099.53;5048563;28;20028;-80
2024/04/03 07:59:59;;;;;;;2.85;0.80;;;;;;;15.14;34.70;95098.94;5060377;28;20032;-79
2024/04/03 08:02:24;;;;;;;1.75;0.70;;;;;;;15.23;34.69;95103.69;5047679;28;20032;-78
2024/04/03 08:04:49;;;;;;;2.88;0.93;;;;;;;15.33;34.85;95105.97;5045618;28;20104;-79
2024/04/03 08:07:15;;;;;;;2.60;1.27;;;;;;;15.47;34.13;95106.56;5046071;28;20032;-79
2024/04/03 08:09:40;;;;;;;3.88;0.82;;;;;;;15.57;33.87;95105.31;5047100;28;20540;-78
2024/04/03 08:12:05;;;;;;;1.77;0.63;;;;;;;15.77;32.66;95104.81;5045810;28;20040;-80
2024/04/03 08:14:31;;;;;;;3.03;1.10;;;;;;;15.89;32.11;95095.56;5047094;28;20021;-79
2024/04/03 08:16:58;;;;;;;3.33;1.08;;;;;;;16.07;31.83;95101.03;5046760;28;20534;-79
2024/04/03 08:19:23;;;;;;;5.50;0.98;;;;;;;16.13;31.84;95098.38;5046178;28;20021;-79
2024/04/03 08:21:49;;;;;;;2.92;1.38;;;;;;;16.30;30.94;95105.06;5045347;28;20858;-79
2024/04/03 08:24:15;;;;;;;3.88;0.77;;;;;;;16.47;30.65;95102.69;5045928;28;20109;-79
2024/04/03 08:26:41;;;;;;;2.65;0.65;;;;;;;16.52;30.98;95101.28;5045269;28;20416;-79
2024/04/03 08:29:06;;;;;;;2.80;1.40;;;;;;;16.66;30.88;95103.31;5045681;28;20032;-79
2024/04/03 08:31:32;;;;;;;1.65;0.50;;;;;;;16.80;30.92;95099.09;5045326;28;20174;-80
2024/04/03 08:34:00;;;;;;;5.10;0.80;;;;;;;17.08;30.58;95102.41;5046892;28;20032;-78
2024/04/03 08:36:25;;;;;;;5.03;1.15;;;;;;;17.33;30.12;95106.69;5045982;28;20041;-81
2024/04/03 08:38:51;;;;;;;3.13;0.65;;;;;;;17.52;29.12;95108.81;5028366;28;20052;-80
2024/04/03 08:41:16;;;;;;;1.52;0.70;;;;;;;17.77;28.90;95115.06;5045722;28;20059;-80
2024/04/03 08:43:42;;;;;;;2.30;0.70;;;;;;;18.00;28.99;95110.66;5045212;28;20147;-79
2024/04/03 08:46:08;;;;;;;2.63;1.00;;;;;;;18.27;28.77;95110.31;5046762;28;20033;-79
2024/04/03 08:48:35;;;;;;;3.00;0.90;;;;;;;18.50;28.03;95107.88;5028617;28;20547;-81
2024/04/03 08:51:00;;;;;;;5.30;1.33;;;;;;;18.79;27.41;95093.84;5045450;28;20032;-79
2024/04/03 08:53:25;;;;;;;5.15;1.30;;;;;;;19.13;26.73;95104.66;5028770;28;20119;-80
2024/04/03 08:55:55;;;;;;;2.33;0.90;;;;;;;19.33;26.35;95097.03;5028016;28;20428;-80
2024/04/03 08:58:21;;;;;;;2.20;1.10;;;;;;;19.51;25.99;95092.41;5029325;28;20029;-79
2024/04/03 09:00:47;;;;;;;2.47;1.02;;;;;;;19.80;25.36;95100.56;5027867;28;20037;-80
2024/04/03 09:03:14;;;;;;;3.58;1.60;;;;;;;20.08;24.92;95097.25;5044764;28;20483;-79
2024/04/03 09:05:43;;;;;;;3.00;1.05;;;;;;;20.33;24.97;95090.06;5044753;28;20029;-80
2024/04/03 09:08:09;;;;;;;6.63;0.90;;;;;;;20.57;24.45;95100.88;5045112;28;20037;-81
2024/04/03 09:10:56;;;;;;;5.03;1.50;;;;;;;20.85;24.26;95093.41;5046407;28;20025;-81
2024/04/03 09:13:24;;;;;;;2.50;0.70;;;;;;;21.13;22.81;95092.78;5038451;28;20029;-79
2024/04/03 09:15:53;;;;;;;7.43;0.90;;;;;;;21.16;22.52;95102.94;5050059;28;20530;-80
2024/04/03 09:18:19;;;;;;;3.40;1.00;;;;;;;21.44;21.72;95105.84;5046544;28;20052;-80
2024/04/03 09:20:47;;;;;;;2.97;1.52;;;;;;;21.64;21.33;95107.69;5045112;28;20033;-80
2024/04/03 09:23:12;;;;;;;2.58;1.20;;;;;;;21.83;21.65;95103.13;5045137;28;20029;-80
2024/04/03 09:25:38;;;;;;;3.00;1.23;;;;;;;21.95;21.70;95096.28;5046029;28;20075;-80
2024/04/03 09:28:08;;;;;;;2.50;1.05;;;;;;;22.13;21.56;95105.47;5046526;28;20025;-81
2024/04/03 09:30:34;;;;;;;8.20;1.40;;;;;;;22.25;21.71;95082.56;5027921;28;20115;-81
2024/04/03 09:33:01;;;;;;;3.22;1.17;;;;;;;22.55;21.01;95098.06;5045121;28;20522;-80
2024/04/03 09:35:28;;;;;;;3.00;0.65;;;;;;;22.63;21.07;95090.66;5044933;28;20041;-80
2024/04/03 09:37:55;;;;;;;3.78;1.33;;;;;;;22.93;20.97;95099.25;5044608;28;20110;-79
2024/04/03 09:40:26;;;;;;;4.85;1.42;;;;;;;23.04;20.83;95085.94;5044921;28;20040;-79
2024/04/03 09:43:05;;;;;;;3.60;1.30;;;;;;;23.32;21.29;95085.84;5045947;28;20044;-80
2024/04/03 09:45:31;;;;;;;6.45;1.35;;;;;;;23.67;20.64;95083.63;5045274;28;20038;-81
2024/04/03 09:48:07;;;;;;;5.53;1.05;;;;;;;23.92;20.12;95088.06;5044357;28;20033;-80
2024/04/03 09:50:39;;;;;;;3.33;1.00;;;;;;;24.14;19.49;95089.16;5045140;28;20454;-81
2024/04/03 09:53:12;;;;;;;3.38;1.00;;;;;;;24.36;19.65;95095.38;5044984;28;20083;-82
2024/04/03 09:55:38;;;;;;;3.15;0.88;;;;;;;24.54;19.61;95073.50;5044877;28;20040;-80
2024/04/03 09:58:14;;;;;;;5.32;1.40;;;;;;;24.72;19.95;95077.69;5028368;28;20088;-79
2024/04/03 10:00:40;;;;;;;4.45;1.52;;;;;;;24.83;19.71;95069.88;5044220;28;20056;-82
2024/04/03 10:03:29;;;;;;;4.38;2.05;;;;;;;24.91;19.38;95070.03;5028496;28;20125;-81
2024/04/03 10:06:04;;;;;;;1.70;0.90;;;;;;;25.05;19.62;95063.25;5044374;28;20049;-81
2024/04/03 10:08:37;;;;;;;3.15;1.23;;;;;;;25.24;19.21;95054.09;5045941;28;20029;-81
2024/04/03 10:11:06;;;;;;;3.17;0.88;;;;;;;25.58;19.18;95060.00;5044827;28;20025;-81
2024/04/03 10:13:38;;;;;;;2.97;0.90;;;;;;;25.88;18.63;95054.97;5027494;28;20376;-80
2024/04/03 10:16:05;;;;;;;3.05;1.35;;;;;;;26.20;18.26;95040.84;5030696;28;20056;-82
2024/04/03 10:18:34;;;;;;;4.38;1.20;;;;;;;26.31;18.51;95047.59;5047789;28;20470;-80
2024/04/03 10:21:01;;;;;;;5.60;0.98;;;;;;;26.44;18.56;95050.50;5048182;28;20468;-81
2024/04/03 10:23:27;;;;;;;4.55;1.20;;;;;;;26.76;18.20;95032.72;5049363;28;20028;-81
2024/04/03 10:25:52;;;;;;;4.07;1.20;;;;;;;27.16;17.77;95042.69;5047661;28;20503;-80
2024/04/03 10:28:18;;;;;;;1.70;0.70;;;;;;;27.26;17.42;95043.03;5053769;28;20029;-81
2024/04/03 10:30:44;;;;;;;3.33;0.85;;;;;;;27.58;17.54;95044.88;5058443;28;20025;-81
2024/04/03 10:33:11;;;;;;;3.25;1.10;;;;;;;28.01;16.74;95044.44;5063653;28;20028;-81
2024/04/03 10:35:36;;;;;;;4.82;2.45;;;;;;;28.16;16.69;95050.22;5031880;28;20044;-82
2024/04/03 10:38:02;;;;;;;4.00;2.00;;;;;;;28.27;16.48;95040.69;5048436;28;20041;-81
2024/04/03 10:40:29;;;;;;;6.72;4.13;;;;;;;29.08;16.00;95042.47;5049497;28;20033;-81
2024/04/03 10:42:54;;;;;;;3.08;1.30;;;;;;;28.81;15.41;95037.00;5047490;28;20033;-81
2024/04/03 10:45:20;;;;;;;2.00;1.15;;;;;;;29.24;15.09;95037.63;5030893;28;20098;-81
2024/04/03 10:47:49;;;;;;;3.17;1.50;;;;;;;29.70;14.46;95037.81;5047295;28;20031;-81
2024/04/03 10:50:15;;;;;;;2.15;1.30;;;;;;;29.88;14.03;95037.50;5031484;28;20132;-82
2024/04/03 10:52:41;;;;;;;2.90;1.50;;;;;;;29.97;14.39;95035.44;5047063;28;20029;-83
2024/04/03 10:55:07;;;;;;;3.97;1.90;;;;;;;30.39;14.15;95033.81;5047677;28;20090;-81
2024/04/03 10:57:32;;;;;;;4.00;1.85;;;;;;;30.78;13.97;95025.28;5047421;28;20325;-82
2024/04/03 10:59:58;;;;;;;3.08;1.50;;;;;;;31.15;13.79;95024.44;5048365;28;20032;-83
2024/04/03 11:02:23;;;;;;;3.22;1.02;;;;;;;30.92;13.11;95026.59;5047233;28;20048;-81
2024/04/03 11:04:49;;;;;;;3.85;2.03;;;;;;;30.03;13.23;95010.50;5046961;28;20108;-82
2024/04/03 11:07:14;;;;;;;5.05;2.05;;;;;;;29.35;13.94;95004.06;5047686;28;20450;-84
2024/04/03 11:09:42;;;;;;;3.45;1.60;;;;;;;28.58;14.45;94988.78;5030127;28;20028;-83
2024/04/03 11:12:12;;;;;;;3.90;1.30;;;;;;;28.13;14.64;94974.28;5047704;28;20170;-82
2024/04/03 11:14:38;;;;;;;3.75;1.55;;;;;;;28.20;14.63;94979.97;5048401;28;20510;-83
2024/04/03 11:17:07;;;;;;;5.50;1.15;;;;;;;28.57;14.45;94978.78;5047163;28;20494;-82
2024/04/03 11:19:38;;;;;;;2.08;1.02;;;;;;;28.50;14.55;94990.00;5048420;28;20401;-81
2024/04/03 11:22:04;;;;;;;2.83;1.20;;;;;;;28.17;14.67;94969.78;5030124;28;20098;-83
2024/04/03 11:24:29;;;;;;;4.68;1.25;;;;;;;28.60;14.47;94976.13;5048302;28;20495;-82
2024/04/03 11:26:55;;;;;;;3.10;1.00;;;;;;;29.08;14.09;94971.72;5029577;28;20021;-82
2024/04/03 11:29:31;;;;;;;5.60;1.75;;;;;;;28.76;14.17;94970.00;5047223;28;20032;-84
2024/04/03 11:31:58;;;;;;;2.55;1.08;;;;;;;28.18;14.52;94959.25;5046322;28;20033;-83
2024/04/03 11:34:25;;;;;;;3.60;1.20;;;;;;;27.77;14.36;94952.31;5030495;28;20033;-83
2024/04/03 11:36:51;;;;;;;4.43;1.40;;;;;;;27.49;14.73;94941.66;5046325;28;20033;-81